createdAt,value
2022-10-02T00:01:33.484Z,5.57
2022-10-02T00:04:01.432Z,3.15
2022-10-02T00:06:35.384Z,4.93
2022-10-02T00:09:04.667Z,3.55
2022-10-02T00:11:59.345Z,3.92
2022-10-02T00:14:30.316Z,3.53
2022-10-02T00:17:00.110Z,5.68
2022-10-02T00:19:26.909Z,2.60
2022-10-02T00:22:18.703Z,4.20
2022-10-02T00:24:54.109Z,2.75
2022-10-02T00:27:38.568Z,5.13
2022-10-02T00:30:06.578Z,4.43
2022-10-02T00:33:08.366Z,3.92
2022-10-02T00:35:50.718Z,3.55
2022-10-02T00:38:26.147Z,5.75
2022-10-02T00:41:07.621Z,3.88
2022-10-02T00:43:36.984Z,4.43
2022-10-02T00:46:29.871Z,3.55
2022-10-02T00:49:18.048Z,3.25
2022-10-02T00:52:11.628Z,2.92
2022-10-02T00:55:02.493Z,4.93
2022-10-02T00:57:55.235Z,3.92
2022-10-02T01:00:23.096Z,3.67
2022-10-02T01:02:59.407Z,3.00
2022-10-02T01:05:27.285Z,3.60
2022-10-02T01:07:55.368Z,5.05
2022-10-02T01:10:25.544Z,4.15
2022-10-02T01:12:53.705Z,2.83
2022-10-02T01:15:23.115Z,2.80
2022-10-02T01:17:53.609Z,3.53
2022-10-02T01:20:26.530Z,5.85
2022-10-02T01:23:06.177Z,3.95
2022-10-02T01:25:32.842Z,9.82
2022-10-02T01:27:59.454Z,2.63
2022-10-02T01:30:25.955Z,2.88
2022-10-02T01:32:58.026Z,4.68
2022-10-02T01:35:28.710Z,4.63
2022-10-02T01:37:55.869Z,3.60
2022-10-02T01:40:26.381Z,5.25
2022-10-02T01:42:54.891Z,4.75
2022-10-02T01:45:43.859Z,2.40
2022-10-02T01:48:37.346Z,3.60
2022-10-02T01:51:13.246Z,2.63
2022-10-02T01:53:55.968Z,3.03
2022-10-02T01:56:22.391Z,5.13
2022-10-02T01:59:05.147Z,3.83
2022-10-02T02:01:45.918Z,6.90
2022-10-02T02:04:38.606Z,4.72
2022-10-02T02:07:18.597Z,3.50
2022-10-02T02:09:58.401Z,4.63
2022-10-02T02:13:02.975Z,3.83
2022-10-02T02:15:40.022Z,4.80
2022-10-02T02:18:27.846Z,5.05
2022-10-02T02:20:58.962Z,5.07
2022-10-02T02:23:30.654Z,2.25
2022-10-02T02:26:02.367Z,4.18
2022-10-02T02:28:32.482Z,3.05
2022-10-02T02:31:01.458Z,3.28
2022-10-02T02:33:49.280Z,4.63
2022-10-02T02:36:19.272Z,4.00
2022-10-02T02:38:50.724Z,7.65
2022-10-02T02:41:23.942Z,4.28
2022-10-02T02:44:05.494Z,4.78
2022-10-02T02:46:35.644Z,3.55
2022-10-02T02:49:10.436Z,5.18
2022-10-02T02:51:42.673Z,3.40
2022-10-02T02:54:20.157Z,4.10
2022-10-02T02:56:48.854Z,3.85
2022-10-02T02:59:17.089Z,5.03
2022-10-02T03:01:43.617Z,4.80
2022-10-02T03:04:12.782Z,3.58
2022-10-02T03:06:42.650Z,4.05
2022-10-02T03:09:16.284Z,7.63
2022-10-02T03:11:51.678Z,5.20
2022-10-02T03:15:02.412Z,4.78
2022-10-02T03:17:34.499Z,4.43
2022-10-02T03:20:10.915Z,4.18
2022-10-02T03:23:14.051Z,2.88
2022-10-02T03:25:46.690Z,3.72
2022-10-02T03:28:50.643Z,4.00
2022-10-02T03:31:14.465Z,7.32
2022-10-02T03:33:41.898Z,4.40
2022-10-02T03:36:12.091Z,5.95
2022-10-02T03:38:39.286Z,5.28
2022-10-02T03:41:05.867Z,5.15
2022-10-02T03:43:32.511Z,5.25
2022-10-02T03:45:59.054Z,6.78
2022-10-02T03:48:25.633Z,3.20
2022-10-02T03:50:55.384Z,5.25
2022-10-02T03:53:25.469Z,4.88
2022-10-02T03:56:04.248Z,4.43
2022-10-02T03:58:32.241Z,5.95
2022-10-02T04:01:20.933Z,4.57
2022-10-02T04:04:01.881Z,4.00
2022-10-02T04:06:45.149Z,4.00
2022-10-02T04:09:31.550Z,5.85
2022-10-02T04:12:16.780Z,4.95
2022-10-02T04:15:01.746Z,3.58
2022-10-02T04:17:43.976Z,3.60
2022-10-02T04:20:19.258Z,4.65
2022-10-02T04:23:11.897Z,4.20
2022-10-02T04:25:43.847Z,5.38
2022-10-02T04:28:14.972Z,4.75
2022-10-02T04:30:41.584Z,4.43
2022-10-02T04:33:14.004Z,4.47
2022-10-02T04:35:59.140Z,5.10
2022-10-02T04:38:31.559Z,3.95
2022-10-02T04:41:21.222Z,4.60
2022-10-02T04:44:15.213Z,5.20
2022-10-02T04:46:49.452Z,3.47
2022-10-02T04:49:22.107Z,5.18
2022-10-02T04:52:09.851Z,4.78
2022-10-02T04:54:48.380Z,5.05
2022-10-02T04:57:27.270Z,4.35
2022-10-02T05:00:16.732Z,6.05
2022-10-02T05:02:52.843Z,5.78
2022-10-02T05:05:48.581Z,5.70
2022-10-02T05:08:33.211Z,8.07
2022-10-02T05:11:21.261Z,5.57
2022-10-02T05:14:02.142Z,6.43
2022-10-02T05:16:28.707Z,5.20
2022-10-02T05:19:22.750Z,6.95
2022-10-02T05:21:58.503Z,5.47
2022-10-02T05:24:44.010Z,5.57
2022-10-02T05:27:22.909Z,3.78
2022-10-02T05:30:07.637Z,5.70
2022-10-02T05:32:49.799Z,3.92
2022-10-02T05:35:25.022Z,4.32
2022-10-02T05:38:16.492Z,3.83
2022-10-02T05:40:52.102Z,7.45
2022-10-02T05:43:46.258Z,4.15
2022-10-02T05:46:25.258Z,5.55
2022-10-02T05:49:08.522Z,5.05
2022-10-02T05:51:46.142Z,7.50
2022-10-02T05:54:28.074Z,4.50
2022-10-02T05:57:06.739Z,4.78
2022-10-02T05:59:45.086Z,6.93
2022-10-02T06:02:49.292Z,4.57
2022-10-02T06:05:22.042Z,2.75
2022-10-02T06:07:52.846Z,5.03
2022-10-02T06:10:27.401Z,8.50
2022-10-02T06:12:58.645Z,4.40
2022-10-02T06:15:36.794Z,6.63
2022-10-02T06:18:07.793Z,4.50
2022-10-02T06:20:39.458Z,6.28
2022-10-02T06:23:12.342Z,3.65
2022-10-02T06:25:49.644Z,6.20
2022-10-02T06:28:28.659Z,5.93
2022-10-02T06:31:18.186Z,5.15
2022-10-02T06:33:45.381Z,8.80
2022-10-02T06:36:13.672Z,6.43
2022-10-02T06:39:04.398Z,8.52
2022-10-02T06:41:39.489Z,4.22
2022-10-02T06:44:27.918Z,6.68
2022-10-02T06:47:02.534Z,4.80
2022-10-02T06:49:28.901Z,6.13
2022-10-02T06:52:19.036Z,3.75
2022-10-02T06:55:22.818Z,3.80
2022-10-02T06:58:38.836Z,6.25
2022-10-02T07:01:37.413Z,2.28
2022-10-02T07:04:25.724Z,6.10
2022-10-02T07:07:12.393Z,6.25
2022-10-02T07:10:17.697Z,7.07
2022-10-02T07:12:59.475Z,4.00
2022-10-02T07:15:28.945Z,7.07
2022-10-02T07:18:04.923Z,11.65
2022-10-02T07:21:01.068Z,6.40
2022-10-02T07:23:30.486Z,5.78
2022-10-02T07:26:11.398Z,3.55
2022-10-02T07:28:46.479Z,7.20
2022-10-02T07:31:31.950Z,5.05
2022-10-02T07:34:25.472Z,5.25
2022-10-02T07:37:08.415Z,3.33
2022-10-02T07:39:49.044Z,3.85
2022-10-02T07:42:15.461Z,7.47
2022-10-02T07:44:44.862Z,7.20
2022-10-02T07:47:33.170Z,5.53
2022-10-02T07:50:25.913Z,3.63
2022-10-02T07:53:14.239Z,4.10
2022-10-02T07:55:43.050Z,6.22
2022-10-02T07:58:31.622Z,7.38
2022-10-02T08:01:02.337Z,2.55
2022-10-02T08:03:49.390Z,5.63
2022-10-02T08:06:17.426Z,3.47
2022-10-02T08:08:52.856Z,4.75
2022-10-02T08:11:29.381Z,6.18
2022-10-02T08:14:06.605Z,3.38
2022-10-02T08:16:40.124Z,3.83
2022-10-02T08:19:16.741Z,6.70
2022-10-02T08:21:50.206Z,6.05
2022-10-02T08:24:24.649Z,6.32
2022-10-02T08:26:59.018Z,4.55
2022-10-02T08:29:41.880Z,4.35
2022-10-02T08:32:11.557Z,4.47
2022-10-02T08:34:40.668Z,4.88
2022-10-02T08:37:40.992Z,7.78
2022-10-02T08:40:32.061Z,13.30
2022-10-02T08:43:23.395Z,6.80
2022-10-02T08:46:32.679Z,4.53
2022-10-02T08:49:26.928Z,7.82
2022-10-02T08:52:17.507Z,5.82
2022-10-02T08:55:10.743Z,5.88
2022-10-02T08:58:14.339Z,6.55
2022-10-02T09:00:55.702Z,8.75
2022-10-02T09:03:54.297Z,5.38
2022-10-02T09:06:20.703Z,5.97
2022-10-02T09:09:09.998Z,9.90
2022-10-02T09:11:58.224Z,7.95
2022-10-02T09:14:39.558Z,6.60
2022-10-02T09:17:14.989Z,7.72
2022-10-02T09:19:44.297Z,9.25
2022-10-02T09:22:28.956Z,9.32
2022-10-02T09:25:15.902Z,11.55
2022-10-02T09:28:06.074Z,10.18
2022-10-02T09:30:47.524Z,19.83
2022-10-02T09:33:58.789Z,19.88
2022-10-02T09:36:40.028Z,17.48
2022-10-02T09:39:31.355Z,18.13
2022-10-02T09:42:00.799Z,21.35
2022-10-02T09:45:04.742Z,23.65
2022-10-02T09:48:10.857Z,26.80
2022-10-02T09:50:37.281Z,19.52
2022-10-02T09:53:44.504Z,15.95
2022-10-02T09:56:53.320Z,18.55
2022-10-02T09:59:51.637Z,20.17
2022-10-02T10:02:52.475Z,16.00
2022-10-02T10:05:56.570Z,17.67
2022-10-02T10:08:47.765Z,15.20
2022-10-02T10:11:35.712Z,13.95
2022-10-02T10:14:29.282Z,16.55
2022-10-02T10:17:27.970Z,20.15
2022-10-02T10:20:04.921Z,16.73
2022-10-02T10:23:06.602Z,18.80
2022-10-02T10:25:45.048Z,12.63
2022-10-02T10:28:45.824Z,12.63
2022-10-02T10:31:21.238Z,13.57
2022-10-02T10:34:18.798Z,13.55
2022-10-02T10:37:13.083Z,9.38
2022-10-02T10:39:46.230Z,18.30
2022-10-02T10:42:44.761Z,22.77
2022-10-02T10:45:35.134Z,17.55
2022-10-02T10:48:10.469Z,16.45
2022-10-02T10:51:00.571Z,9.02
2022-10-02T10:54:01.944Z,22.08
2022-10-02T10:56:46.261Z,11.23
2022-10-02T10:59:42.277Z,13.93
2022-10-02T11:02:23.925Z,12.63
2022-10-02T11:05:07.930Z,15.93
2022-10-02T11:08:14.216Z,13.52
2022-10-02T11:11:02.024Z,11.30
2022-10-02T11:13:54.481Z,11.57
2022-10-02T11:16:38.148Z,11.75
2022-10-02T11:19:32.301Z,11.23
2022-10-02T11:22:12.670Z,11.80
2022-10-02T11:24:42.821Z,13.60
2022-10-02T11:27:30.847Z,14.07
2022-10-02T11:30:05.364Z,11.20
2022-10-02T11:32:42.111Z,10.70
2022-10-02T11:35:32.141Z,11.48
2022-10-02T11:38:35.428Z,7.43
2022-10-02T11:41:09.034Z,13.13
2022-10-02T11:43:39.453Z,8.68
2022-10-02T11:46:38.656Z,16.00
2022-10-02T11:49:38.034Z,14.68
2022-10-02T11:52:35.110Z,6.40
2022-10-02T11:55:22.393Z,12.77
2022-10-02T11:58:05.611Z,14.13
2022-10-02T12:00:47.670Z,9.02
2022-10-02T12:03:22.808Z,8.55
2022-10-02T12:06:02.953Z,8.30
2022-10-02T12:08:41.283Z,13.50
2022-10-02T12:11:26.092Z,13.00
2022-10-02T12:14:07.332Z,8.80
2022-10-02T12:16:45.498Z,7.97
2022-10-02T12:19:39.733Z,11.57
2022-10-02T12:22:48.091Z,8.25
2022-10-02T12:25:48.665Z,9.70
2022-10-02T12:29:02.763Z,8.90
2022-10-02T12:31:35.319Z,12.55
2022-10-02T12:34:15.623Z,11.95
2022-10-02T12:36:56.439Z,11.77
2022-10-02T12:39:40.116Z,9.27
2022-10-02T12:42:11.716Z,9.55
2022-10-02T12:44:51.493Z,13.98
2022-10-02T12:47:30.992Z,10.07
2022-10-02T12:50:23.743Z,8.93
2022-10-02T12:53:18.499Z,11.25
2022-10-02T12:56:36.014Z,10.77
2022-10-02T12:59:27.588Z,10.85
2022-10-02T13:02:37.296Z,7.18
2022-10-02T13:05:44.628Z,11.95
2022-10-02T13:08:41.570Z,8.43
2022-10-02T13:11:27.126Z,10.52
2022-10-02T13:14:22.345Z,7.10
2022-10-02T13:17:22.328Z,6.28
2022-10-02T13:19:54.742Z,8.60
2022-10-02T13:22:42.531Z,8.93
2022-10-02T13:25:17.894Z,10.55
2022-10-02T13:27:57.025Z,8.00
2022-10-02T13:30:24.175Z,10.10
2022-10-02T13:33:11.491Z,8.40
2022-10-02T13:35:56.751Z,6.95
2022-10-02T13:38:41.594Z,9.05
2022-10-02T13:41:46.811Z,12.70
2022-10-02T13:44:33.977Z,7.13
2022-10-02T13:47:22.587Z,8.95
2022-10-02T13:50:17.394Z,7.38
2022-10-02T13:52:59.352Z,7.88
2022-10-02T13:55:30.510Z,10.05
2022-10-02T13:58:19.923Z,7.18
2022-10-02T14:00:52.098Z,7.03
2022-10-02T14:03:37.363Z,7.88
2022-10-02T14:06:21.861Z,5.97
2022-10-02T14:08:48.319Z,7.18
2022-10-02T14:11:50.690Z,7.47
2022-10-02T14:14:24.316Z,6.95
2022-10-02T14:17:00.095Z,7.68
2022-10-02T14:19:56.434Z,7.70
2022-10-02T14:22:40.980Z,9.90
2022-10-02T14:25:33.807Z,8.07
2022-10-02T14:28:25.547Z,8.80
2022-10-02T14:31:37.508Z,7.30
2022-10-02T14:34:28.669Z,8.02
2022-10-02T14:37:20.172Z,7.35
2022-10-02T14:39:49.104Z,7.72
2022-10-02T14:42:43.092Z,7.55
2022-10-02T14:45:30.582Z,5.63
2022-10-02T14:47:57.454Z,7.40
2022-10-02T14:50:43.544Z,6.22
2022-10-02T14:53:47.052Z,6.18
2022-10-02T14:56:42.032Z,7.97
2022-10-02T14:59:11.527Z,8.70
2022-10-02T15:01:52.193Z,7.10
2022-10-02T15:04:28.209Z,8.15
2022-10-02T15:07:00.758Z,7.63
2022-10-02T15:09:35.525Z,6.82
2022-10-02T15:12:05.780Z,7.93
2022-10-02T15:15:03.303Z,8.00
2022-10-02T15:17:50.851Z,5.90
2022-10-02T15:20:36.054Z,8.13
2022-10-02T15:23:06.817Z,7.22
2022-10-02T15:26:00.358Z,10.98
2022-10-02T15:28:41.426Z,8.15
2022-10-02T15:31:40.034Z,7.80
2022-10-02T15:34:20.905Z,7.10
2022-10-02T15:37:18.413Z,5.32
2022-10-02T15:39:53.972Z,8.55
2022-10-02T15:42:49.769Z,6.68
2022-10-02T15:45:35.907Z,11.93
2022-10-02T15:48:34.977Z,5.72
2022-10-02T15:51:31.070Z,11.98
2022-10-02T15:54:18.485Z,10.35
2022-10-02T15:56:50.165Z,7.43
2022-10-02T15:59:47.008Z,7.75
2022-10-02T16:02:41.362Z,6.80
2022-10-02T16:05:43.425Z,7.00
2022-10-02T16:08:19.336Z,7.25
2022-10-02T16:11:23.117Z,10.57
2022-10-02T16:14:00.398Z,5.75
2022-10-02T16:17:00.704Z,7.15
2022-10-02T16:19:40.504Z,7.47
2022-10-02T16:22:40.517Z,10.05
2022-10-02T16:25:19.070Z,8.18
2022-10-02T16:28:09.184Z,7.55
2022-10-02T16:31:17.597Z,8.10
2022-10-02T16:34:00.937Z,6.55
2022-10-02T16:36:52.766Z,6.45
2022-10-02T16:39:39.819Z,7.55
2022-10-02T16:42:22.572Z,8.52
2022-10-02T16:45:21.820Z,10.20
2022-10-02T16:47:54.112Z,6.80
2022-10-02T16:50:28.893Z,8.25
2022-10-02T16:53:04.115Z,7.85
2022-10-02T16:55:38.304Z,7.15
2022-10-02T16:58:12.357Z,6.75
2022-10-02T17:01:07.234Z,7.47
2022-10-02T17:03:41.598Z,9.30
2022-10-02T17:06:26.763Z,8.80
2022-10-02T17:09:05.970Z,6.60
2022-10-02T17:11:58.419Z,6.57
2022-10-02T17:14:46.697Z,8.35
2022-10-02T17:18:08.965Z,6.95
2022-10-02T17:20:47.249Z,6.97
2022-10-02T17:23:24.736Z,7.85
2022-10-02T17:26:14.404Z,8.02
2022-10-02T17:29:16.281Z,5.32
2022-10-02T17:31:58.606Z,6.22
2022-10-02T17:34:27.365Z,5.72
2022-10-02T17:37:02.448Z,9.40
2022-10-02T17:39:43.322Z,7.28
2022-10-02T17:42:12.857Z,6.50
2022-10-02T17:45:05.958Z,7.50
2022-10-02T17:47:38.324Z,6.03
2022-10-02T17:50:32.510Z,6.30
2022-10-02T17:54:11.865Z,8.20
2022-10-02T17:56:58.897Z,8.57
2022-10-02T18:00:02.992Z,6.90
2022-10-02T18:02:55.349Z,7.82
2022-10-02T18:05:40.016Z,7.15
2022-10-02T18:08:40.649Z,7.35
2022-10-02T18:11:39.732Z,7.38
2022-10-02T18:14:23.880Z,8.63
2022-10-02T18:17:15.430Z,5.35
2022-10-02T18:19:41.886Z,6.93
2022-10-02T18:22:11.240Z,6.57
2022-10-02T18:24:40.784Z,6.00
2022-10-02T18:27:31.920Z,5.90
2022-10-02T18:30:16.905Z,5.72
2022-10-02T18:33:14.528Z,6.38
2022-10-02T18:35:47.965Z,5.00
2022-10-02T18:38:32.885Z,6.43
2022-10-02T18:41:20.483Z,5.00
2022-10-02T18:43:59.071Z,6.32
2022-10-02T18:47:03.166Z,8.18
2022-10-02T18:49:51.057Z,5.95
2022-10-02T18:52:47.288Z,11.85
2022-10-02T18:55:44.446Z,6.15
2022-10-02T18:58:31.728Z,6.28
2022-10-02T19:01:30.682Z,6.07
2022-10-02T19:04:15.353Z,5.85
2022-10-02T19:06:48.704Z,6.82
2022-10-02T19:09:26.267Z,8.48
2022-10-02T19:12:23.623Z,8.75
2022-10-02T19:14:55.859Z,6.30
2022-10-02T19:17:27.192Z,5.40
2022-10-02T19:19:56.218Z,6.50
2022-10-02T19:22:36.246Z,6.63
2022-10-02T19:25:13.534Z,9.45
2022-10-02T19:27:43.626Z,5.07
2022-10-02T19:30:23.754Z,6.53
2022-10-02T19:32:51.868Z,9.85
2022-10-02T19:35:25.646Z,6.40
2022-10-02T19:37:56.738Z,5.50
2022-10-02T19:40:26.251Z,4.90
2022-10-02T19:42:56.489Z,7.18
2022-10-02T19:45:26.866Z,6.32
2022-10-02T19:48:04.474Z,6.25
2022-10-02T19:50:44.401Z,5.50
2022-10-02T19:53:22.057Z,6.45
2022-10-02T19:55:54.671Z,8.13
2022-10-02T19:58:31.122Z,8.65
2022-10-02T20:00:57.897Z,5.57
2022-10-02T20:03:26.302Z,5.55
2022-10-02T20:06:04.302Z,7.43
2022-10-02T20:08:36.681Z,6.60
2022-10-02T20:11:10.905Z,6.45
2022-10-02T20:13:56.625Z,6.57
2022-10-02T20:16:45.265Z,5.18
2022-10-02T20:19:17.518Z,5.18
2022-10-02T20:21:51.896Z,5.70
2022-10-02T20:24:45.549Z,6.78
2022-10-02T20:28:02.446Z,5.65
2022-10-02T20:30:43.090Z,5.93
2022-10-02T20:33:31.204Z,5.95
2022-10-02T20:36:06.162Z,6.07
2022-10-02T20:38:39.135Z,4.45
2022-10-02T20:41:20.365Z,6.88
2022-10-02T20:43:49.672Z,6.63
2022-10-02T20:46:35.746Z,4.50
2022-10-02T20:49:09.329Z,4.28
2022-10-02T20:55:08.480Z,6.65
2022-10-02T20:58:08.585Z,5.07
2022-10-02T21:00:52.893Z,6.60
2022-10-02T21:03:25.189Z,6.60
2022-10-02T21:06:39.929Z,4.13
2022-10-02T21:09:17.845Z,6.43
2022-10-02T21:12:24.423Z,5.20
2022-10-02T21:15:21.940Z,4.50
2022-10-02T21:18:14.211Z,3.60
2022-10-02T21:20:59.282Z,6.53
2022-10-02T21:23:47.688Z,7.63
2022-10-02T21:26:44.010Z,6.10
2022-10-02T21:29:40.807Z,5.20
2022-10-02T21:32:33.669Z,6.63
2022-10-02T21:35:06.928Z,3.88
2022-10-02T21:37:46.040Z,4.05
2022-10-02T21:40:37.068Z,5.85
2022-10-02T21:43:17.101Z,5.28
2022-10-02T21:46:16.557Z,7.60
2022-10-02T21:48:52.141Z,6.32
2022-10-02T21:51:40.962Z,4.40
2022-10-02T21:54:24.809Z,4.55
2022-10-02T21:57:12.880Z,5.72
2022-10-02T21:59:45.484Z,3.97
2022-10-02T22:02:33.704Z,6.70
2022-10-02T22:05:29.728Z,5.72
2022-10-02T22:08:21.029Z,4.43
2022-10-02T22:11:17.723Z,4.85
2022-10-02T22:13:45.031Z,3.03
2022-10-02T22:16:42.332Z,4.85
2022-10-02T22:19:27.050Z,4.75
2022-10-02T22:22:11.894Z,4.05
2022-10-02T22:25:07.998Z,3.60
2022-10-02T22:27:54.118Z,4.15
2022-10-02T22:30:27.610Z,4.90
2022-10-02T22:33:15.498Z,6.55
2022-10-02T22:36:00.725Z,5.43
2022-10-02T22:38:59.895Z,4.07
2022-10-02T22:41:34.215Z,4.03
2022-10-02T22:44:07.941Z,4.80
2022-10-02T22:46:47.587Z,4.40
2022-10-02T22:49:42.099Z,5.28
2022-10-02T22:52:45.081Z,3.75
2022-10-02T22:55:29.823Z,6.35
2022-10-02T22:58:18.874Z,5.03
2022-10-02T23:01:26.914Z,4.28
2022-10-02T23:04:16.705Z,2.67
2022-10-02T23:06:48.268Z,4.07
2022-10-02T23:09:29.373Z,4.90
2022-10-02T23:12:08.636Z,5.75
2022-10-02T23:14:52.564Z,6.55
2022-10-02T23:17:45.587Z,8.20
2022-10-02T23:20:19.749Z,3.03
2022-10-02T23:22:56.256Z,4.32
2022-10-02T23:25:43.966Z,4.03
2022-10-02T23:28:25.669Z,5.80
2022-10-02T23:31:11.582Z,3.13
2022-10-02T23:34:13.426Z,4.35
2022-10-02T23:37:01.390Z,5.78
2022-10-02T23:39:39.849Z,3.83
2022-10-02T23:42:11.193Z,6.15
2022-10-02T23:45:01.781Z,6.15
2022-10-02T23:47:43.379Z,7.50
2022-10-02T23:50:34.885Z,4.57
2022-10-02T23:53:14.858Z,4.60
2022-10-02T23:55:55.708Z,5.35
2022-10-02T23:58:31.221Z,5.85
